sensor_id;sensor_type;location;lat;lon;timestamp;pressure;altitude;pressure_sealevel;temperature;humidity
71105;BME280;58760;48.716;8.962;2022-07-03T00:01:16;96690.41;;;17.30;72.90
71105;BME280;58760;48.716;8.962;2022-07-03T00:03:41;96689.41;;;17.24;71.86
71105;BME280;58760;48.716;8.962;2022-07-03T00:06:06;96688.19;;;17.14;72.46
71105;BME280;58760;48.716;8.962;2022-07-03T00:08:32;96702.22;;;17.16;72.94
71105;BME280;58760;48.716;8.962;2022-07-03T00:10:57;96699.75;;;17.08;73.37
71105;BME280;58760;48.716;8.962;2022-07-03T00:13:22;96702.84;;;17.05;74.01
71105;BME280;58760;48.716;8.962;2022-07-03T00:15:48;96701.19;;;16.97;74.54
71105;BME280;58760;48.716;8.962;2022-07-03T00:18:13;96707.63;;;16.90;74.87
71105;BME280;58760;48.716;8.962;2022-07-03T00:20:46;96705.78;;;16.84;75.33
71105;BME280;58760;48.716;8.962;2022-07-03T00:23:16;96707.22;;;16.80;76.03
71105;BME280;58760;48.716;8.962;2022-07-03T00:25:43;96699.38;;;16.71;75.08
71105;BME280;58760;48.716;8.962;2022-07-03T00:28:08;96697.09;;;16.68;75.48
71105;BME280;58760;48.716;8.962;2022-07-03T00:30:34;96699.78;;;16.68;75.02
71105;BME280;58760;48.716;8.962;2022-07-03T00:33:03;96685.78;;;16.60;76.31
71105;BME280;58760;48.716;8.962;2022-07-03T00:35:35;96692.38;;;16.57;76.03
71105;BME280;58760;48.716;8.962;2022-07-03T00:38:02;96689.91;;;16.62;77.26
71105;BME280;58760;48.716;8.962;2022-07-03T00:40:28;96694.25;;;16.63;75.42
71105;BME280;58760;48.716;8.962;2022-07-03T00:42:55;96695.06;;;16.57;75.77
71105;BME280;58760;48.716;8.962;2022-07-03T00:45:25;96698.56;;;16.64;77.54
71105;BME280;58760;48.716;8.962;2022-07-03T00:47:51;96699.38;;;16.58;75.91
71105;BME280;58760;48.716;8.962;2022-07-03T00:50:24;96698.97;;;16.61;75.14
71105;BME280;58760;48.716;8.962;2022-07-03T00:52:52;96699.56;;;16.50;76.30
71105;BME280;58760;48.716;8.962;2022-07-03T00:55:17;96700.38;;;16.44;75.91
71105;BME280;58760;48.716;8.962;2022-07-03T00:57:47;96703.06;;;16.44;77.06
71105;BME280;58760;48.716;8.962;2022-07-03T01:00:16;96698.53;;;16.45;77.73
71105;BME280;58760;48.716;8.962;2022-07-03T01:11:46;96699.53;;;16.24;77.77
71105;BME280;58760;48.716;8.962;2022-07-03T01:14:04;96698.28;;;16.27;78.90
71105;BME280;58760;48.716;8.962;2022-07-03T01:16:41;96701.81;;;16.27;78.03
71105;BME280;58760;48.716;8.962;2022-07-03T01:24:55;96698.50;;;16.12;78.30
71105;BME280;58760;48.716;8.962;2022-07-03T01:27:47;96697.84;;;16.10;77.99
71105;BME280;58760;48.716;8.962;2022-07-03T01:30:14;96703.22;;;16.10;78.18
71105;BME280;58760;48.716;8.962;2022-07-03T01:32:45;96696.63;;;16.06;77.76
71105;BME280;58760;48.716;8.962;2022-07-03T01:35:21;96697.22;;;16.01;78.14
71105;BME280;58760;48.716;8.962;2022-07-03T01:37:47;96703.81;;;15.99;79.49
71105;BME280;58760;48.716;8.962;2022-07-03T01:40:14;96699.88;;;15.95;79.27
71105;BME280;58760;48.716;8.962;2022-07-03T01:42:42;96701.31;;;15.97;79.14
71105;BME280;58760;48.716;8.962;2022-07-03T01:45:10;96704.03;;;16.04;78.06
71105;BME280;58760;48.716;8.962;2022-07-03T01:47:38;96703.00;;;15.98;78.22
71105;BME280;58760;48.716;8.962;2022-07-03T01:50:07;96697.22;;;15.95;79.08
71105;BME280;58760;48.716;8.962;2022-07-03T01:52:33;96692.69;;;15.95;79.86
71105;BME280;58760;48.716;8.962;2022-07-03T01:55:00;96695.56;;;15.94;79.46
71105;BME280;58760;48.716;8.962;2022-07-03T01:57:37;96696.78;;;15.91;79.73
71105;BME280;58760;48.716;8.962;2022-07-03T02:00:06;96693.91;;;15.86;79.96
71105;BME280;58760;48.716;8.962;2022-07-03T02:02:32;96687.28;;;15.76;79.28
71105;BME280;58760;48.716;8.962;2022-07-03T02:05:09;96696.53;;;15.73;78.92
71105;BME280;58760;48.716;8.962;2022-07-03T02:07:43;96687.88;;;15.71;78.80
71105;BME280;58760;48.716;8.962;2022-07-03T02:10:15;96682.34;;;15.73;79.70
71105;BME280;58760;48.716;8.962;2022-07-03T02:12:49;96687.44;;;15.67;80.28
71105;BME280;58760;48.716;8.962;2022-07-03T02:15:18;96682.47;;;15.58;79.62
71105;BME280;58760;48.716;8.962;2022-07-03T02:17:47;96676.47;;;15.49;80.34
71105;BME280;58760;48.716;8.962;2022-07-03T02:20:15;96681.38;;;15.46;80.07
71105;BME280;58760;48.716;8.962;2022-07-03T02:22:43;96681.78;;;15.43;80.34
71105;BME280;58760;48.716;8.962;2022-07-03T02:25:18;96678.66;;;15.39;81.07
71105;BME280;58760;48.716;8.962;2022-07-03T02:27:50;96674.56;;;15.43;81.30
71105;BME280;58760;48.716;8.962;2022-07-03T02:30:17;96676.84;;;15.46;80.77
71105;BME280;58760;48.716;8.962;2022-07-03T02:32:51;96678.50;;;15.47;80.92
71105;BME280;58760;48.716;8.962;2022-07-03T02:35:30;96686.34;;;15.49;81.28
71105;BME280;58760;48.716;8.962;2022-07-03T02:38:10;96684.94;;;15.53;81.72
71105;BME280;58760;48.716;8.962;2022-07-03T02:40:42;96687.19;;;15.49;80.49
71105;BME280;58760;48.716;8.962;2022-07-03T02:43:19;96690.22;;;15.46;80.43
71105;BME280;58760;48.716;8.962;2022-07-03T02:48:41;96689.19;;;15.41;79.63
71105;BME280;58760;48.716;8.962;2022-07-03T02:51:20;96694.09;;;15.37;79.67
71105;BME280;58760;48.716;8.962;2022-07-03T02:56:25;96693.66;;;15.34;80.87
71105;BME280;58760;48.716;8.962;2022-07-03T02:59:24;96693.03;;;15.32;80.80
71105;BME280;58760;48.716;8.962;2022-07-03T03:01:58;96701.25;;;15.30;80.68
71105;BME280;58760;48.716;8.962;2022-07-03T03:04:30;96695.25;;;15.28;80.58
71105;BME280;58760;48.716;8.962;2022-07-03T03:07:02;96695.66;;;15.25;81.09
71105;BME280;58760;48.716;8.962;2022-07-03T03:09:44;96699.59;;;15.29;82.15
71105;BME280;58760;48.716;8.962;2022-07-03T03:12:11;96701.00;;;15.25;80.99
71105;BME280;58760;48.716;8.962;2022-07-03T03:14:46;96701.00;;;15.25;81.67
71105;BME280;58760;48.716;8.962;2022-07-03T03:17:23;96707.97;;;15.19;81.85
71105;BME280;58760;48.716;8.962;2022-07-03T03:19:55;96711.03;;;15.16;82.01
71105;BME280;58760;48.716;8.962;2022-07-03T03:25:13;96713.19;;;15.00;82.28
71105;BME280;58760;48.716;8.962;2022-07-03T03:27:38;96719.56;;;14.99;82.35
71105;BME280;58760;48.716;8.962;2022-07-03T03:30:04;96721.00;;;14.95;82.16
71105;BME280;58760;48.716;8.962;2022-07-03T03:32:34;96717.94;;;14.98;82.30
71105;BME280;58760;48.716;8.962;2022-07-03T03:35:01;96723.41;;;14.90;81.87
71105;BME280;58760;48.716;8.962;2022-07-03T03:37:26;96728.31;;;14.86;82.38
71105;BME280;58760;48.716;8.962;2022-07-03T03:39:52;96725.47;;;14.88;82.88
71105;BME280;58760;48.716;8.962;2022-07-03T03:42:17;96728.53;;;14.85;82.61
71105;BME280;58760;48.716;8.962;2022-07-03T03:44:43;96730.75;;;14.81;82.70
71105;BME280;58760;48.716;8.962;2022-07-03T03:47:09;96723.75;;;14.80;82.60
71105;BME280;58760;48.716;8.962;2022-07-03T03:49:34;96722.69;;;14.75;82.07
71105;BME280;58760;48.716;8.962;2022-07-03T03:52:00;96729.03;;;14.74;82.49
71105;BME280;58760;48.716;8.962;2022-07-03T03:54:26;96726.75;;;14.71;82.38
71105;BME280;58760;48.716;8.962;2022-07-03T03:56:51;96730.31;;;14.78;82.46
71105;BME280;58760;48.716;8.962;2022-07-03T03:59:17;96730.53;;;14.83;82.12
71105;BME280;58760;48.716;8.962;2022-07-03T04:01:42;96734.94;;;14.90;82.65
71105;BME280;58760;48.716;8.962;2022-07-03T04:04:07;96735.13;;;14.89;82.27
71105;BME280;58760;48.716;8.962;2022-07-03T04:06:33;96731.63;;;14.88;82.39
71105;BME280;58760;48.716;8.962;2022-07-03T04:08:58;96729.78;;;14.89;81.81
71105;BME280;58760;48.716;8.962;2022-07-03T04:11:23;96734.13;;;14.96;83.10
71105;BME280;58760;48.716;8.962;2022-07-03T04:13:49;96735.81;;;14.97;82.37
71105;BME280;58760;48.716;8.962;2022-07-03T04:16:14;96736.41;;;14.99;82.10
71105;BME280;58760;48.716;8.962;2022-07-03T04:18:40;96733.75;;;14.99;81.77
71105;BME280;58760;48.716;8.962;2022-07-03T04:21:05;96738.69;;;15.02;81.85
71105;BME280;58760;48.716;8.962;2022-07-03T04:23:31;96741.41;;;15.09;82.06
71105;BME280;58760;48.716;8.962;2022-07-03T04:26:06;96733.75;;;15.27;80.83
71105;BME280;58760;48.716;8.962;2022-07-03T04:28:32;96735.97;;;15.24;80.40
71105;BME280;58760;48.716;8.962;2022-07-03T04:30:58;96740.06;;;15.19;80.58
71105;BME280;58760;48.716;8.962;2022-07-03T04:33:23;96745.63;;;15.18;80.68
71105;BME280;58760;48.716;8.962;2022-07-03T04:35:49;96748.34;;;15.59;78.71
71105;BME280;58760;48.716;8.962;2022-07-03T04:38:14;96750.88;;;15.39;79.73
71105;BME280;58760;48.716;8.962;2022-07-03T04:40:39;96757.19;;;15.32;80.18
71105;BME280;58760;48.716;8.962;2022-07-03T04:43:05;96757.16;;;15.25;81.04
71105;BME280;58760;48.716;8.962;2022-07-03T04:45:30;96756.97;;;15.27;81.00
71105;BME280;58760;48.716;8.962;2022-07-03T04:47:56;96754.25;;;15.20;81.63
71105;BME280;58760;48.716;8.962;2022-07-03T04:50:21;96756.94;;;15.20;81.75
71105;BME280;58760;48.716;8.962;2022-07-03T04:52:46;96760.22;;;15.22;81.59
71105;BME280;58760;48.716;8.962;2022-07-03T04:55:12;96762.72;;;15.24;81.94
71105;BME280;58760;48.716;8.962;2022-07-03T04:57:37;96758.19;;;15.24;82.45
71105;BME280;58760;48.716;8.962;2022-07-03T05:00:03;96766.03;;;15.32;82.28
71105;BME280;58760;48.716;8.962;2022-07-03T05:02:29;96771.25;;;15.40;82.30
71105;BME280;58760;48.716;8.962;2022-07-03T05:04:54;96761.06;;;15.50;81.95
71105;BME280;58760;48.716;8.962;2022-07-03T05:07:20;96768.47;;;15.55;82.40
71105;BME280;58760;48.716;8.962;2022-07-03T05:09:45;96756.78;;;15.62;82.31
71105;BME280;58760;48.716;8.962;2022-07-03T05:12:10;96759.50;;;15.69;82.46
71105;BME280;58760;48.716;8.962;2022-07-03T05:14:36;96762.59;;;15.73;82.64
71105;BME280;58760;48.716;8.962;2022-07-03T05:17:01;96764.25;;;15.80;82.97
71105;BME280;58760;48.716;8.962;2022-07-03T05:19:27;96756.91;;;15.89;83.19
71105;BME280;58760;48.716;8.962;2022-07-03T05:21:52;96769.06;;;15.98;83.06
71105;BME280;58760;48.716;8.962;2022-07-03T05:24:17;96765.81;;;16.02;82.93
71105;BME280;58760;48.716;8.962;2022-07-03T05:26:43;96768.69;;;16.07;82.89
71105;BME280;58760;48.716;8.962;2022-07-03T05:29:08;96766.03;;;16.14;82.48
71105;BME280;58760;48.716;8.962;2022-07-03T05:31:33;96778.44;;;16.21;82.82
71105;BME280;58760;48.716;8.962;2022-07-03T05:33:59;96775.13;;;16.26;83.35
71105;BME280;58760;48.716;8.962;2022-07-03T05:36:24;96769.38;;;16.36;82.85
71105;BME280;58760;48.716;8.962;2022-07-03T05:38:50;96767.53;;;16.43;82.91
71105;BME280;58760;48.716;8.962;2022-07-03T05:41:34;96771.69;;;16.52;83.21
71105;BME280;58760;48.716;8.962;2022-07-03T05:43:59;96772.78;;;16.57;83.18
71105;BME280;58760;48.716;8.962;2022-07-03T05:46:24;96762.88;;;16.64;82.63
71105;BME280;58760;48.716;8.962;2022-07-03T05:48:50;96761.22;;;16.70;82.39
71105;BME280;58760;48.716;8.962;2022-07-03T05:51:15;96757.31;;;16.79;81.95
71105;BME280;58760;48.716;8.962;2022-07-03T05:53:40;96758.56;;;16.90;81.82
71105;BME280;58760;48.716;8.962;2022-07-03T05:56:06;96766.78;;;16.95;82.22
71105;BME280;58760;48.716;8.962;2022-07-03T05:58:31;96769.69;;;17.13;81.21
71105;BME280;58760;48.716;8.962;2022-07-03T06:00:57;96764.31;;;17.26;80.30
71105;BME280;58760;48.716;8.962;2022-07-03T06:03:22;96767.41;;;17.30;81.03
71105;BME280;58760;48.716;8.962;2022-07-03T06:05:47;96758.91;;;17.39;80.93
71105;BME280;58760;48.716;8.962;2022-07-03T06:08:13;96764.03;;;17.47;81.07
71105;BME280;58760;48.716;8.962;2022-07-03T06:10:38;96762.38;;;17.59;80.99
71105;BME280;58760;48.716;8.962;2022-07-03T06:13:03;96760.72;;;17.71;80.40
71105;BME280;58760;48.716;8.962;2022-07-03T06:15:29;96759.00;;;17.84;80.21
71105;BME280;58760;48.716;8.962;2022-07-03T06:17:54;96755.03;;;17.99;79.44
71105;BME280;58760;48.716;8.962;2022-07-03T06:20:20;96749.63;;;18.06;79.77
71105;BME280;58760;48.716;8.962;2022-07-03T06:22:45;96751.44;;;18.12;79.30
71105;BME280;58760;48.716;8.962;2022-07-03T06:25:11;96758.03;;;18.16;79.51
71105;BME280;58760;48.716;8.962;2022-07-03T06:27:36;96755.22;;;18.42;77.91
71105;BME280;58760;48.716;8.962;2022-07-03T06:30:02;96748.91;;;18.61;77.07
71105;BME280;58760;48.716;8.962;2022-07-03T06:32:28;96752.88;;;18.84;76.06
71105;BME280;58760;48.716;8.962;2022-07-03T06:34:53;96756.22;;;19.04;75.50
71105;BME280;58760;48.716;8.962;2022-07-03T06:37:19;96761.16;;;19.07;75.60
71105;BME280;58760;48.716;8.962;2022-07-03T06:39:44;96757.06;;;19.04;75.44
71105;BME280;58760;48.716;8.962;2022-07-03T06:42:10;96756.44;;;19.02;75.41
71105;BME280;58760;48.716;8.962;2022-07-03T06:44:35;96759.44;;;19.12;75.10
71105;BME280;58760;48.716;8.962;2022-07-03T06:47:00;96762.09;;;19.19;74.84
71105;BME280;58760;48.716;8.962;2022-07-03T06:49:37;96752.59;;;19.34;74.40
71105;BME280;58760;48.716;8.962;2022-07-03T06:52:03;96758.72;;;19.48;74.49
71105;BME280;58760;48.716;8.962;2022-07-03T06:54:28;96752.22;;;19.56;74.79
71105;BME280;58760;48.716;8.962;2022-07-03T06:56:53;96760.22;;;19.80;71.91
71105;BME280;58760;48.716;8.962;2022-07-03T06:59:19;96762.47;;;20.02;69.44
71105;BME280;58760;48.716;8.962;2022-07-03T07:01:44;96761.09;;;20.29;68.45
71105;BME280;58760;48.716;8.962;2022-07-03T07:04:10;96759.97;;;20.37;69.85
71105;BME280;58760;48.716;8.962;2022-07-03T07:06:36;96760.81;;;20.49;68.46
71105;BME280;58760;48.716;8.962;2022-07-03T07:09:04;96764.06;;;20.69;68.31
71105;BME280;58760;48.716;8.962;2022-07-03T07:11:30;96755.84;;;20.75;67.15
71105;BME280;58760;48.716;8.962;2022-07-03T07:13:55;96755.44;;;20.90;66.74
71105;BME280;58760;48.716;8.962;2022-07-03T07:16:20;96759.44;;;20.99;66.82
71105;BME280;58760;48.716;8.962;2022-07-03T07:18:46;96764.56;;;21.01;67.10
71105;BME280;58760;48.716;8.962;2022-07-03T07:21:11;96765.88;;;20.98;66.99
71105;BME280;58760;48.716;8.962;2022-07-03T07:23:37;96765.56;;;21.06;66.11
71105;BME280;58760;48.716;8.962;2022-07-03T07:26:02;96772.63;;;21.19;66.24
71105;BME280;58760;48.716;8.962;2022-07-03T07:28:28;96776.50;;;21.23;65.44
71105;BME280;58760;48.716;8.962;2022-07-03T07:30:54;96772.88;;;21.29;64.63
71105;BME280;58760;48.716;8.962;2022-07-03T07:33:21;96769.34;;;21.40;64.17
71105;BME280;58760;48.716;8.962;2022-07-03T07:35:46;96771.09;;;21.34;65.20
71105;BME280;58760;48.716;8.962;2022-07-03T07:38:11;96774.41;;;21.48;64.20
71105;BME280;58760;48.716;8.962;2022-07-03T07:40:37;96770.59;;;21.72;61.45
71105;BME280;58760;48.716;8.962;2022-07-03T07:43:02;96773.09;;;21.62;61.89
71105;BME280;58760;48.716;8.962;2022-07-03T07:45:28;96769.66;;;21.78;60.10
71105;BME280;58760;48.716;8.962;2022-07-03T07:47:53;96774.34;;;21.83;61.82
71105;BME280;58760;48.716;8.962;2022-07-03T07:50:18;96770.25;;;21.92;61.52
71105;BME280;58760;48.716;8.962;2022-07-03T07:52:44;96759.06;;;21.88;62.46
71105;BME280;58760;48.716;8.962;2022-07-03T07:55:09;96767.81;;;21.91;62.78
71105;BME280;58760;48.716;8.962;2022-07-03T07:57:36;96766.28;;;21.95;61.28
71105;BME280;58760;48.716;8.962;2022-07-03T08:00:09;96762.75;;;21.94;63.35
71105;BME280;58760;48.716;8.962;2022-07-03T08:02:35;96756.03;;;21.97;62.05
71105;BME280;58760;48.716;8.962;2022-07-03T08:05:19;96756.03;;;21.97;63.90
71105;BME280;58760;48.716;8.962;2022-07-03T08:08:11;96750.84;;;22.07;63.74
71105;BME280;58760;48.716;8.962;2022-07-03T08:10:48;96753.63;;;22.23;61.63
71105;BME280;58760;48.716;8.962;2022-07-03T08:13:15;96750.66;;;22.25;62.02
71105;BME280;58760;48.716;8.962;2022-07-03T08:15:41;96757.22;;;22.29;61.69
71105;BME280;58760;48.716;8.962;2022-07-03T08:18:08;96755.59;;;22.28;60.88
71105;BME280;58760;48.716;8.962;2022-07-03T08:20:35;96748.97;;;22.35;59.30
71105;BME280;58760;48.716;8.962;2022-07-03T08:23:00;96753.19;;;22.43;60.45
71105;BME280;58760;48.716;8.962;2022-07-03T08:25:26;96751.13;;;22.50;60.73
71105;BME280;58760;48.716;8.962;2022-07-03T08:27:51;96751.25;;;22.55;58.14
71105;BME280;58760;48.716;8.962;2022-07-03T08:30:17;96752.22;;;22.77;56.26
71105;BME280;58760;48.716;8.962;2022-07-03T08:32:47;96743.53;;;22.75;57.95
71105;BME280;58760;48.716;8.962;2022-07-03T08:35:13;96731.94;;;22.80;56.62
71105;BME280;58760;48.716;8.962;2022-07-03T08:37:38;96740.34;;;22.95;55.56
71105;BME280;58760;48.716;8.962;2022-07-03T08:40:07;96747.72;;;23.00;54.75
71105;BME280;58760;48.716;8.962;2022-07-03T08:42:35;96739.25;;;23.13;55.04
71105;BME280;58760;48.716;8.962;2022-07-03T08:45:02;96738.94;;;23.26;48.29
71105;BME280;58760;48.716;8.962;2022-07-03T08:47:27;96746.25;;;23.42;47.63
71105;BME280;58760;48.716;8.962;2022-07-03T08:49:55;96730.88;;;23.48;46.90
71105;BME280;58760;48.716;8.962;2022-07-03T08:52:22;96732.56;;;23.70;46.56
71105;BME280;58760;48.716;8.962;2022-07-03T08:54:48;96737.16;;;23.70;48.67
71105;BME280;58760;48.716;8.962;2022-07-03T08:57:13;96736.94;;;23.55;48.90
71105;BME280;58760;48.716;8.962;2022-07-03T08:59:38;96738.59;;;23.39;48.01
71105;BME280;58760;48.716;8.962;2022-07-03T09:02:05;96733.09;;;23.34;48.33
71105;BME280;58760;48.716;8.962;2022-07-03T09:04:34;96732.22;;;23.12;47.77
71105;BME280;58760;48.716;8.962;2022-07-03T09:07:00;96730.63;;;23.16;48.54
71105;BME280;58760;48.716;8.962;2022-07-03T09:09:27;96729.03;;;23.15;49.55
71105;BME280;58760;48.716;8.962;2022-07-03T09:11:52;96730.97;;;23.19;49.78
71105;BME280;58760;48.716;8.962;2022-07-03T09:14:18;96720.22;;;23.24;50.03
71105;BME280;58760;48.716;8.962;2022-07-03T09:16:44;96726.59;;;23.52;50.17
71105;BME280;58760;48.716;8.962;2022-07-03T09:19:09;96724.91;;;23.67;47.90
71105;BME280;58760;48.716;8.962;2022-07-03T09:21:38;96720.22;;;23.79;47.38
71105;BME280;58760;48.716;8.962;2022-07-03T09:24:05;96716.09;;;23.55;50.19
71105;BME280;58760;48.716;8.962;2022-07-03T09:26:32;96723.31;;;23.66;49.57
71105;BME280;58760;48.716;8.962;2022-07-03T09:28:57;96723.06;;;23.89;46.24
71105;BME280;58760;48.716;8.962;2022-07-03T09:31:25;96726.97;;;23.99;45.36
71105;BME280;58760;48.716;8.962;2022-07-03T09:36:36;96725.97;;;24.05;44.88
71105;BME280;58760;48.716;8.962;2022-07-03T09:41:58;96725.13;;;24.26;42.01
71105;BME280;58760;48.716;8.962;2022-07-03T09:44:30;96724.22;;;24.15;42.63
71105;BME280;58760;48.716;8.962;2022-07-03T09:47:15;96721.97;;;24.34;41.03
71105;BME280;58760;48.716;8.962;2022-07-03T09:50:01;96721.16;;;24.33;42.23
71105;BME280;58760;48.716;8.962;2022-07-03T09:57:40;96717.59;;;24.28;41.03
71105;BME280;58760;48.716;8.962;2022-07-03T10:00:24;96710.31;;;24.60;42.30
71105;BME280;58760;48.716;8.962;2022-07-03T10:10:34;96702.56;;;24.74;39.91
71105;BME280;58760;48.716;8.962;2022-07-03T10:13:01;96710.09;;;24.67;39.39
71105;BME280;58760;48.716;8.962;2022-07-03T10:15:28;96696.63;;;24.45;43.11
71105;BME280;58760;48.716;8.962;2022-07-03T10:17:56;96708.75;;;24.69;40.91
71105;BME280;58760;48.716;8.962;2022-07-03T10:20:26;96701.09;;;24.61;40.07
71105;BME280;58760;48.716;8.962;2022-07-03T10:22:53;96700.09;;;24.72;45.33
71105;BME280;58760;48.716;8.962;2022-07-03T10:25:18;96705.47;;;24.94;42.06
71105;BME280;58760;48.716;8.962;2022-07-03T10:27:45;96699.25;;;24.93;41.49
71105;BME280;58760;48.716;8.962;2022-07-03T10:30:14;96699.78;;;24.90;41.47
71105;BME280;58760;48.716;8.962;2022-07-03T10:32:40;96695.50;;;25.00;39.91
71105;BME280;58760;48.716;8.962;2022-07-03T10:35:07;96698.41;;;25.30;40.09
71105;BME280;58760;48.716;8.962;2022-07-03T10:37:43;96696.78;;;25.29;38.68
71105;BME280;58760;48.716;8.962;2022-07-03T10:40:21;96695.66;;;25.20;37.99
71105;BME280;58760;48.716;8.962;2022-07-03T10:43:15;96694.03;;;25.24;38.87
71105;BME280;58760;48.716;8.962;2022-07-03T10:46:24;96695.59;;;25.15;41.54
71105;BME280;58760;48.716;8.962;2022-07-03T10:49:03;96692.97;;;25.30;39.93
71105;BME280;58760;48.716;8.962;2022-07-03T11:07:25;96681.31;;;25.76;38.56
71105;BME280;58760;48.716;8.962;2022-07-03T11:25:45;96666.06;;;26.58;37.95
71105;BME280;58760;48.716;8.962;2022-07-03T11:41:44;96644.28;;;27.43;39.92
71105;BME280;58760;48.716;8.962;2022-07-03T11:44:14;96639.03;;;27.62;36.89
71105;BME280;58760;48.716;8.962;2022-07-03T11:46:40;96633.47;;;27.87;39.69
71105;BME280;58760;48.716;8.962;2022-07-03T11:51:35;96632.22;;;28.63;37.63
71105;BME280;58760;48.716;8.962;2022-07-03T11:54:02;96632.81;;;28.93;33.99
71105;BME280;58760;48.716;8.962;2022-07-03T11:56:29;96626.34;;;29.42;34.92
71105;BME280;58760;48.716;8.962;2022-07-03T11:59:01;96625.41;;;30.18;33.67
71105;BME280;58760;48.716;8.962;2022-07-03T12:04:10;96616.28;;;30.97;33.54
71105;BME280;58760;48.716;8.962;2022-07-03T12:12:00;96602.56;;;31.97;32.43
71105;BME280;58760;48.716;8.962;2022-07-03T12:14:46;96611.28;;;32.27;29.04
71105;BME280;58760;48.716;8.962;2022-07-03T12:17:19;96613.22;;;32.62;31.34
71105;BME280;58760;48.716;8.962;2022-07-03T12:22:10;96597.72;;;32.88;29.16
71105;BME280;58760;48.716;8.962;2022-07-03T12:24:36;96607.41;;;33.08;30.30
71105;BME280;58760;48.716;8.962;2022-07-03T12:27:03;96600.31;;;33.38;29.54
71105;BME280;58760;48.716;8.962;2022-07-03T12:29:29;96590.19;;;33.55;26.46
71105;BME280;58760;48.716;8.962;2022-07-03T12:31:55;96588.31;;;33.73;29.23
71105;BME280;58760;48.716;8.962;2022-07-03T12:34:21;96590.50;;;34.02;27.32
71105;BME280;58760;48.716;8.962;2022-07-03T12:36:56;96596.56;;;34.12;27.95
71105;BME280;58760;48.716;8.962;2022-07-03T12:39:22;96594.78;;;34.25;27.71
71105;BME280;58760;48.716;8.962;2022-07-03T12:41:47;96586.66;;;34.11;26.20
71105;BME280;58760;48.716;8.962;2022-07-03T12:44:13;96578.41;;;34.37;25.84
71105;BME280;58760;48.716;8.962;2022-07-03T12:46:43;96571.47;;;34.74;26.88
71105;BME280;58760;48.716;8.962;2022-07-03T12:49:10;96569.00;;;34.90;26.70
71105;BME280;58760;48.716;8.962;2022-07-03T12:54:09;96562.53;;;34.17;26.18
71105;BME280;58760;48.716;8.962;2022-07-03T12:56:35;96562.84;;;34.33;26.77
71105;BME280;58760;48.716;8.962;2022-07-03T12:59:00;96553.94;;;34.70;25.54
71105;BME280;58760;48.716;8.962;2022-07-03T13:01:59;96556.63;;;34.96;25.05
71105;BME280;58760;48.716;8.962;2022-07-03T13:07:07;96551.50;;;35.41;25.27
71105;BME280;58760;48.716;8.962;2022-07-03T13:09:34;96547.16;;;35.69;24.65
71105;BME280;58760;48.716;8.962;2022-07-03T13:12:01;96534.91;;;35.79;23.63
71105;BME280;58760;48.716;8.962;2022-07-03T13:14:26;96532.84;;;35.29;23.03
71105;BME280;58760;48.716;8.962;2022-07-03T13:16:54;96533.03;;;34.69;23.59
71105;BME280;58760;48.716;8.962;2022-07-03T13:19:21;96536.94;;;35.23;23.46
71105;BME280;58760;48.716;8.962;2022-07-03T13:21:49;96541.22;;;35.03;25.15
71105;BME280;58760;48.716;8.962;2022-07-03T13:24:16;96548.56;;;34.48;25.93
71105;BME280;58760;48.716;8.962;2022-07-03T13:26:42;96547.44;;;34.40;25.55
71105;BME280;58760;48.716;8.962;2022-07-03T13:29:07;96552.16;;;34.40;24.94
71105;BME280;58760;48.716;8.962;2022-07-03T13:31:33;96548.09;;;34.20;25.46
71105;BME280;58760;48.716;8.962;2022-07-03T13:33:59;96547.63;;;34.27;26.42
71105;BME280;58760;48.716;8.962;2022-07-03T13:36:26;96557.44;;;33.45;26.83
71105;BME280;58760;48.716;8.962;2022-07-03T13:38:52;96560.50;;;32.60;27.85
71105;BME280;58760;48.716;8.962;2022-07-03T13:41:17;96556.22;;;32.98;28.99
71105;BME280;58760;48.716;8.962;2022-07-03T13:43:44;96554.00;;;33.40;28.52
71105;BME280;58760;48.716;8.962;2022-07-03T13:46:10;96556.03;;;32.28;29.33
71105;BME280;58760;48.716;8.962;2022-07-03T13:48:35;96551.16;;;31.62;30.60
71105;BME280;58760;48.716;8.962;2022-07-03T13:51:01;96543.72;;;32.26;29.53
71105;BME280;58760;48.716;8.962;2022-07-03T13:53:26;96542.44;;;32.90;28.81
71105;BME280;58760;48.716;8.962;2022-07-03T13:55:54;96542.81;;;33.76;26.94
71105;BME280;58760;48.716;8.962;2022-07-03T13:58:20;96536.88;;;33.99;27.04
71105;BME280;58760;48.716;8.962;2022-07-03T14:00:45;96535.94;;;34.12;26.97
71105;BME280;58760;48.716;8.962;2022-07-03T14:03:11;96541.13;;;34.74;26.01
71105;BME280;58760;48.716;8.962;2022-07-03T14:05:36;96534.81;;;34.22;27.00
71105;BME280;58760;48.716;8.962;2022-07-03T14:08:02;96539.31;;;33.53;28.22
71105;BME280;58760;48.716;8.962;2022-07-03T14:10:27;96544.72;;;33.19;28.79
71105;BME280;58760;48.716;8.962;2022-07-03T14:12:53;96548.50;;;33.79;27.32
71105;BME280;58760;48.716;8.962;2022-07-03T14:15:18;96550.63;;;33.99;27.99
71105;BME280;58760;48.716;8.962;2022-07-03T14:17:44;96547.91;;;34.34;26.95
71105;BME280;58760;48.716;8.962;2022-07-03T14:20:10;96549.88;;;34.42;27.26
71105;BME280;58760;48.716;8.962;2022-07-03T14:22:36;96542.06;;;34.95;27.05
71105;BME280;58760;48.716;8.962;2022-07-03T14:25:02;96541.13;;;35.29;26.56
71105;BME280;58760;48.716;8.962;2022-07-03T14:27:28;96550.63;;;35.02;26.42
71105;BME280;58760;48.716;8.962;2022-07-03T14:30:12;96543.66;;;34.96;25.99
71105;BME280;58760;48.716;8.962;2022-07-03T14:32:56;96538.44;;;35.21;26.50
71105;BME280;58760;48.716;8.962;2022-07-03T14:35:21;96535.31;;;35.31;25.11
71105;BME280;58760;48.716;8.962;2022-07-03T14:37:47;96536.66;;;35.07;25.72
71105;BME280;58760;48.716;8.962;2022-07-03T14:40:12;96534.09;;;35.11;24.88
71105;BME280;58760;48.716;8.962;2022-07-03T14:42:37;96545.97;;;34.77;25.42
71105;BME280;58760;48.716;8.962;2022-07-03T14:45:03;96538.28;;;35.00;25.63
71105;BME280;58760;48.716;8.962;2022-07-03T14:47:30;96544.25;;;35.28;25.77
71105;BME280;58760;48.716;8.962;2022-07-03T14:49:55;96536.28;;;35.64;25.57